sensor_id;sensor_type;location;lat;lon;timestamp;pressure;altitude;pressure_sealevel;temperature;humidity
54389;BME280;40975;50.390;8.640;2022-09-09T00:06:23;98551.16;;;15.28;100.00
54389;BME280;40975;50.390;8.640;2022-09-09T00:09:08;98544.00;;;15.29;100.00
54389;BME280;40975;50.390;8.640;2022-09-09T00:11:40;98541.97;;;15.31;100.00
54389;BME280;40975;50.390;8.640;2022-09-09T00:14:17;98538.88;;;15.34;100.00
54389;BME280;40975;50.390;8.640;2022-09-09T00:16:50;98537.69;;;15.36;100.00
54389;BME280;40975;50.390;8.640;2022-09-09T00:19:24;98544.13;;;15.42;100.00
54389;BME280;40975;50.390;8.640;2022-09-09T00:22:03;98535.47;;;15.40;100.00
54389;BME280;40975;50.390;8.640;2022-09-09T00:24:46;98541.69;;;15.47;100.00
54389;BME280;40975;50.390;8.640;2022-09-09T00:27:17;98531.63;;;15.49;100.00
54389;BME280;40975;50.390;8.640;2022-09-09T00:29:53;98533.53;;;15.55;100.00
54389;BME280;40975;50.390;8.640;2022-09-09T00:32:20;98524.84;;;15.53;100.00
54389;BME280;40975;50.390;8.640;2022-09-09T00:34:56;98536.41;;;15.54;100.00
54389;BME280;40975;50.390;8.640;2022-09-09T00:37:25;98536.78;;;15.51;100.00
54389;BME280;40975;50.390;8.640;2022-09-09T00:39:53;98533.47;;;15.49;100.00
54389;BME280;40975;50.390;8.640;2022-09-09T00:42:41;98527.66;;;15.45;100.00
54389;BME280;40975;50.390;8.640;2022-09-09T00:47:46;98533.44;;;15.42;100.00
54389;BME280;40975;50.390;8.640;2022-09-09T00:50:57;98529.69;;;15.43;100.00
54389;BME280;40975;50.390;8.640;2022-09-09T00:53:39;98531.81;;;15.48;100.00
54389;BME280;40975;50.390;8.640;2022-09-09T00:56:20;98530.97;;;15.47;100.00
54389;BME280;40975;50.390;8.640;2022-09-09T00:59:02;98534.09;;;15.51;100.00
54389;BME280;40975;50.390;8.640;2022-09-09T01:01:30;98534.34;;;15.56;100.00
54389;BME280;40975;50.390;8.640;2022-09-09T01:03:56;98528.38;;;15.54;100.00
54389;BME280;40975;50.390;8.640;2022-09-09T01:06:30;98530.84;;;15.55;100.00
54389;BME280;40975;50.390;8.640;2022-09-09T01:09:17;98531.22;;;15.52;100.00
54389;BME280;40975;50.390;8.640;2022-09-09T01:12:09;98528.09;;;15.49;100.00
54389;BME280;40975;50.390;8.640;2022-09-09T01:17:26;98527.16;;;15.35;100.00
54389;BME280;40975;50.390;8.640;2022-09-09T01:20:08;98538.00;;;15.27;100.00
54389;BME280;40975;50.390;8.640;2022-09-09T01:23:04;98537.28;;;15.18;100.00
54389;BME280;40975;50.390;8.640;2022-09-09T01:26:09;98533.34;;;15.14;100.00
54389;BME280;40975;50.390;8.640;2022-09-09T01:28:38;98542.75;;;15.10;100.00
54389;BME280;40975;50.390;8.640;2022-09-09T01:31:09;98542.13;;;15.07;100.00
54389;BME280;40975;50.390;8.640;2022-09-09T01:33:41;98541.50;;;15.05;100.00
54389;BME280;40975;50.390;8.640;2022-09-09T01:36:12;98543.53;;;15.03;100.00
54389;BME280;40975;50.390;8.640;2022-09-09T01:38:48;98545.34;;;15.03;100.00
54389;BME280;40975;50.390;8.640;2022-09-09T01:44:11;98547.22;;;15.02;100.00
54389;BME280;40975;50.390;8.640;2022-09-09T01:46:38;98539.00;;;15.04;100.00
54389;BME280;40975;50.390;8.640;2022-09-09T01:49:08;98537.53;;;15.01;100.00
54389;BME280;40975;50.390;8.640;2022-09-09T01:51:34;98545.34;;;15.03;100.00
54389;BME280;40975;50.390;8.640;2022-09-09T01:54:04;98539.41;;;15.01;100.00
54389;BME280;40975;50.390;8.640;2022-09-09T01:57:23;98540.59;;;14.98;100.00
54389;BME280;40975;50.390;8.640;2022-09-09T02:00:04;98541.63;;;14.97;100.00
54389;BME280;40975;50.390;8.640;2022-09-09T02:03:06;98544.66;;;14.94;100.00
54389;BME280;40975;50.390;8.640;2022-09-09T02:05:58;98541.72;;;14.89;100.00
54389;BME280;40975;50.390;8.640;2022-09-09T02:08:45;98537.59;;;14.86;100.00
54389;BME280;40975;50.390;8.640;2022-09-09T02:11:21;98534.47;;;14.83;100.00
54389;BME280;40975;50.390;8.640;2022-09-09T02:13:57;98540.00;;;14.81;100.00
54389;BME280;40975;50.390;8.640;2022-09-09T02:16:37;98537.44;;;14.73;100.00
54389;BME280;40975;50.390;8.640;2022-09-09T02:19:09;98543.88;;;14.64;100.00
54389;BME280;40975;50.390;8.640;2022-09-09T02:21:55;98550.97;;;14.56;100.00
54389;BME280;40975;50.390;8.640;2022-09-09T02:24:22;98546.84;;;14.54;100.00
54389;BME280;40975;50.390;8.640;2022-09-09T02:26:57;98533.84;;;14.51;100.00
54389;BME280;40975;50.390;8.640;2022-09-09T02:29:34;98543.97;;;14.55;100.00
54389;BME280;40975;50.390;8.640;2022-09-09T02:32:05;98536.81;;;14.56;100.00
54389;BME280;40975;50.390;8.640;2022-09-09T02:34:40;98549.50;;;14.54;100.00
54389;BME280;40975;50.390;8.640;2022-09-09T02:37:09;98544.97;;;14.54;100.00
54389;BME280;40975;50.390;8.640;2022-09-09T02:39:36;98537.97;;;14.53;100.00
54389;BME280;40975;50.390;8.640;2022-09-09T02:42:04;98543.16;;;14.55;100.00
54389;BME280;40975;50.390;8.640;2022-09-09T02:44:31;98541.31;;;14.55;100.00
54389;BME280;40975;50.390;8.640;2022-09-09T02:50:13;98535.72;;;14.50;100.00
54389;BME280;40975;50.390;8.640;2022-09-09T02:52:51;98546.75;;;14.47;100.00
54389;BME280;40975;50.390;8.640;2022-09-09T02:58:13;98559.34;;;14.53;100.00
54389;BME280;40975;50.390;8.640;2022-09-09T03:00:49;98547.66;;;14.54;100.00
54389;BME280;40975;50.390;8.640;2022-09-09T03:03:18;98553.84;;;14.55;100.00
54389;BME280;40975;50.390;8.640;2022-09-09T03:05:46;98548.31;;;14.56;100.00
54389;BME280;40975;50.390;8.640;2022-09-09T03:08:12;98547.66;;;14.54;100.00
54389;BME280;40975;50.390;8.640;2022-09-09T03:10:41;98543.97;;;14.55;100.00
54389;BME280;40975;50.390;8.640;2022-09-09T03:13:07;98548.09;;;14.58;100.00
54389;BME280;40975;50.390;8.640;2022-09-09T03:15:37;98541.13;;;14.57;100.00
54389;BME280;40975;50.390;8.640;2022-09-09T03:18:04;98538.19;;;14.52;100.00
54389;BME280;40975;50.390;8.640;2022-09-09T03:20:30;98536.53;;;14.51;100.00
54389;BME280;40975;50.390;8.640;2022-09-09T03:22:56;98530.38;;;14.50;100.00
54389;BME280;40975;50.390;8.640;2022-09-09T03:25:23;98530.38;;;14.50;100.00
54389;BME280;40975;50.390;8.640;2022-09-09T03:27:53;98531.84;;;14.53;100.00
54389;BME280;40975;50.390;8.640;2022-09-09T03:30:21;98529.16;;;14.53;100.00
54389;BME280;40975;50.390;8.640;2022-09-09T03:32:47;98527.13;;;14.55;100.00
54389;BME280;40975;50.390;8.640;2022-09-09T03:35:13;98524.84;;;14.52;100.00
54389;BME280;40975;50.390;8.640;2022-09-09T03:37:38;98522.06;;;14.45;100.00
54389;BME280;40975;50.390;8.640;2022-09-09T03:40:04;98518.84;;;14.50;100.00
54389;BME280;40975;50.390;8.640;2022-09-09T03:42:29;98527.13;;;14.55;100.00
54389;BME280;40975;50.390;8.640;2022-09-09T03:44:56;98512.78;;;14.56;100.00
54389;BME280;40975;50.390;8.640;2022-09-09T03:47:23;98518.38;;;14.61;100.00
54389;BME280;40975;50.390;8.640;2022-09-09T03:49:53;98523.16;;;14.66;100.00
54389;BME280;40975;50.390;8.640;2022-09-09T03:52:18;98523.63;;;14.69;100.00
54389;BME280;40975;50.390;8.640;2022-09-09T03:54:45;98528.81;;;14.71;100.00
54389;BME280;40975;50.390;8.640;2022-09-09T03:57:10;98531.06;;;14.74;100.00
54389;BME280;40975;50.390;8.640;2022-09-09T03:59:36;98531.53;;;14.77;100.00
54389;BME280;40975;50.390;8.640;2022-09-09T04:02:03;98531.53;;;14.77;100.00
54389;BME280;40975;50.390;8.640;2022-09-09T04:04:29;98530.78;;;14.84;100.00
54389;BME280;40975;50.390;8.640;2022-09-09T04:06:54;98540.91;;;14.88;100.00
54389;BME280;40975;50.390;8.640;2022-09-09T04:09:19;98546.50;;;14.93;100.00
54389;BME280;40975;50.390;8.640;2022-09-09T04:11:46;98537.47;;;14.95;100.00
54389;BME280;40975;50.390;8.640;2022-09-09T04:14:13;98544.19;;;15.05;100.00
54389;BME280;40975;50.390;8.640;2022-09-09T04:16:39;98539.28;;;15.09;100.00
54389;BME280;40975;50.390;8.640;2022-09-09T04:19:13;98540.34;;;15.15;100.00
54389;BME280;40975;50.390;8.640;2022-09-09T04:21:41;98532.78;;;15.18;100.00
54389;BME280;40975;50.390;8.640;2022-09-09T04:24:08;98540.59;;;15.20;100.00
54389;BME280;40975;50.390;8.640;2022-09-09T04:26:34;98529.09;;;15.19;100.00
54389;BME280;40975;50.390;8.640;2022-09-09T04:29:01;98528.09;;;15.20;100.00
54389;BME280;40975;50.390;8.640;2022-09-09T04:31:27;98525.56;;;15.19;100.00
54389;BME280;40975;50.390;8.640;2022-09-09T04:33:55;98523.75;;;15.19;100.00
54389;BME280;40975;50.390;8.640;2022-09-09T04:36:21;98534.25;;;15.21;100.00
54389;BME280;40975;50.390;8.640;2022-09-09T04:38:48;98526.59;;;15.18;100.00
54389;BME280;40975;50.390;8.640;2022-09-09T04:41:15;98523.75;;;15.19;100.00
54389;BME280;40975;50.390;8.640;2022-09-09T04:43:43;98520.22;;;15.19;100.00
54389;BME280;40975;50.390;8.640;2022-09-09T04:46:08;98520.06;;;15.20;100.00
54389;BME280;40975;50.390;8.640;2022-09-09T04:48:34;98521.25;;;15.18;100.00
54389;BME280;40975;50.390;8.640;2022-09-09T04:51:03;98519.63;;;15.17;100.00
54389;BME280;40975;50.390;8.640;2022-09-09T04:53:31;98534.81;;;15.16;100.00
54389;BME280;40975;50.390;8.640;2022-09-09T04:56:07;98531.31;;;15.16;100.00
54389;BME280;40975;50.390;8.640;2022-09-09T04:58:39;98524.97;;;15.17;100.00
54389;BME280;40975;50.390;8.640;2022-09-09T05:03:40;98539.97;;;15.18;100.00
54389;BME280;40975;50.390;8.640;2022-09-09T05:06:10;98538.13;;;15.18;100.00
54389;BME280;40975;50.390;8.640;2022-09-09T05:08:37;98544.94;;;15.21;100.00
54389;BME280;40975;50.390;8.640;2022-09-09T05:13:41;98550.28;;;15.21;100.00
54389;BME280;40975;50.390;8.640;2022-09-09T05:16:07;98545.78;;;15.21;100.00
54389;BME280;40975;50.390;8.640;2022-09-09T05:18:35;98541.44;;;15.20;100.00
54389;BME280;40975;50.390;8.640;2022-09-09T05:21:00;98542.91;;;15.23;100.00
54389;BME280;40975;50.390;8.640;2022-09-09T05:23:26;98554.59;;;15.22;100.00
54389;BME280;40975;50.390;8.640;2022-09-09T05:25:56;98546.78;;;15.20;100.00
54389;BME280;40975;50.390;8.640;2022-09-09T05:28:26;98557.94;;;15.24;100.00
54389;BME280;40975;50.390;8.640;2022-09-09T05:31:04;98556.91;;;15.25;100.00
54389;BME280;40975;50.390;8.640;2022-09-09T05:33:32;98546.88;;;15.27;100.00
54389;BME280;40975;50.390;8.640;2022-09-09T05:35:59;98548.31;;;15.30;100.00
54389;BME280;40975;50.390;8.640;2022-09-09T05:38:25;98557.22;;;15.37;100.00
54389;BME280;40975;50.390;8.640;2022-09-09T05:40:52;98562.94;;;15.34;100.00
54389;BME280;40975;50.390;8.640;2022-09-09T05:43:19;98562.13;;;15.33;100.00
54389;BME280;40975;50.390;8.640;2022-09-09T05:45:57;98574.47;;;15.34;100.00
54389;BME280;40975;50.390;8.640;2022-09-09T05:48:28;98570.72;;;15.29;100.00
54389;BME280;40975;50.390;8.640;2022-09-09T05:50:54;98575.50;;;15.33;100.00
54389;BME280;40975;50.390;8.640;2022-09-09T05:53:20;98582.75;;;15.39;100.00
54389;BME280;40975;50.390;8.640;2022-09-09T05:55:45;98574.16;;;15.44;100.00
54389;BME280;40975;50.390;8.640;2022-09-09T05:58:11;98582.44;;;15.49;100.00
54389;BME280;40975;50.390;8.640;2022-09-09T06:00:37;98581.78;;;15.47;100.00
54389;BME280;40975;50.390;8.640;2022-09-09T06:03:03;98578.16;;;15.55;100.00
54389;BME280;40975;50.390;8.640;2022-09-09T06:05:29;98592.78;;;15.59;100.00
54389;BME280;40975;50.390;8.640;2022-09-09T06:07:55;98578.81;;;15.57;100.00
54389;BME280;40975;50.390;8.640;2022-09-09T06:10:23;98593.44;;;15.61;100.00
54389;BME280;40975;50.390;8.640;2022-09-09T06:12:48;98600.44;;;15.62;100.00
54389;BME280;40975;50.390;8.640;2022-09-09T06:15:13;98605.66;;;15.70;100.00
54389;BME280;40975;50.390;8.640;2022-09-09T06:17:39;98597.00;;;15.68;100.00
54389;BME280;40975;50.390;8.640;2022-09-09T06:20:04;98600.94;;;15.73;100.00
54389;BME280;40975;50.390;8.640;2022-09-09T06:22:31;98596.63;;;15.72;100.00
54389;BME280;40975;50.390;8.640;2022-09-09T06:24:57;98601.19;;;15.78;100.00
54389;BME280;40975;50.390;8.640;2022-09-09T06:27:22;98590.94;;;15.81;100.00
54389;BME280;40975;50.390;8.640;2022-09-09T06:29:47;98596.34;;;15.88;100.00
54389;BME280;40975;50.390;8.640;2022-09-09T06:32:14;98602.63;;;16.02;100.00
54389;BME280;40975;50.390;8.640;2022-09-09T06:34:39;98597.91;;;16.04;100.00
54389;BME280;40975;50.390;8.640;2022-09-09T06:37:05;98599.63;;;16.12;100.00
54389;BME280;40975;50.390;8.640;2022-09-09T06:39:37;98601.78;;;16.23;100.00
54389;BME280;40975;50.390;8.640;2022-09-09T06:42:02;98598.97;;;16.38;100.00
54389;BME280;40975;50.390;8.640;2022-09-09T06:44:47;98600.00;;;16.37;100.00
54389;BME280;40975;50.390;8.640;2022-09-09T06:47:42;98597.31;;;16.37;100.00
54389;BME280;40975;50.390;8.640;2022-09-09T06:50:08;98595.28;;;16.39;100.00
54389;BME280;40975;50.390;8.640;2022-09-09T06:52:34;98602.69;;;16.37;100.00
54389;BME280;40975;50.390;8.640;2022-09-09T06:55:00;98598.53;;;16.35;100.00
54389;BME280;40975;50.390;8.640;2022-09-09T06:57:25;98592.13;;;16.29;100.00
54389;BME280;40975;50.390;8.640;2022-09-09T06:59:51;98599.75;;;16.32;100.00
54389;BME280;40975;50.390;8.640;2022-09-09T07:02:17;98604.81;;;16.48;100.00
54389;BME280;40975;50.390;8.640;2022-09-09T07:04:43;98592.94;;;16.65;100.00
54389;BME280;40975;50.390;8.640;2022-09-09T07:07:09;98596.69;;;16.77;100.00
54389;BME280;40975;50.390;8.640;2022-09-09T07:09:37;98599.75;;;16.67;100.00
54389;BME280;40975;50.390;8.640;2022-09-09T07:12:03;98607.44;;;16.84;100.00
54389;BME280;40975;50.390;8.640;2022-09-09T07:14:32;98603.19;;;16.96;100.00
54389;BME280;40975;50.390;8.640;2022-09-09T07:17:02;98603.84;;;17.05;100.00
54389;BME280;40975;50.390;8.640;2022-09-09T07:19:34;98612.34;;;17.15;100.00
54389;BME280;40975;50.390;8.640;2022-09-09T07:22:01;98601.81;;;17.20;100.00
54389;BME280;40975;50.390;8.640;2022-09-09T07:24:28;98611.53;;;17.21;100.00
54389;BME280;40975;50.390;8.640;2022-09-09T07:26:55;98595.88;;;17.32;100.00
54389;BME280;40975;50.390;8.640;2022-09-09T07:29:20;98600.03;;;17.54;100.00
54389;BME280;40975;50.390;8.640;2022-09-09T07:31:46;98601.25;;;17.38;100.00
54389;BME280;40975;50.390;8.640;2022-09-09T07:34:16;98606.75;;;17.17;100.00
54389;BME280;40975;50.390;8.640;2022-09-09T07:36:42;98610.28;;;17.24;100.00
54389;BME280;40975;50.390;8.640;2022-09-09T07:39:12;98616.06;;;17.28;100.00
54389;BME280;40975;50.390;8.640;2022-09-09T07:44:25;98616.69;;;17.30;100.00
54389;BME280;40975;50.390;8.640;2022-09-09T07:47:01;98626.56;;;17.16;100.00
54389;BME280;40975;50.390;8.640;2022-09-09T07:49:32;98623.25;;;17.14;100.00
54389;BME280;40975;50.390;8.640;2022-09-09T07:52:00;98612.06;;;17.03;100.00
54389;BME280;40975;50.390;8.640;2022-09-09T07:54:26;98616.84;;;17.08;100.00
54389;BME280;40975;50.390;8.640;2022-09-09T07:56:52;98619.13;;;17.11;100.00
54389;BME280;40975;50.390;8.640;2022-09-09T07:59:20;98625.94;;;17.14;100.00
54389;BME280;40975;50.390;8.640;2022-09-09T08:01:50;98630.47;;;17.13;100.00
54389;BME280;40975;50.390;8.640;2022-09-09T08:04:20;98634.47;;;17.37;100.00
54389;BME280;40975;50.390;8.640;2022-09-09T08:06:52;98637.63;;;17.61;100.00
54389;BME280;40975;50.390;8.640;2022-09-09T08:09:20;98650.81;;;17.83;100.00
54389;BME280;40975;50.390;8.640;2022-09-09T08:11:46;98646.09;;;17.92;100.00
54389;BME280;40975;50.390;8.640;2022-09-09T08:14:13;98655.19;;;17.91;100.00
54389;BME280;40975;50.390;8.640;2022-09-09T08:16:42;98649.56;;;17.65;100.00
54389;BME280;40975;50.390;8.640;2022-09-09T08:19:08;98646.47;;;17.55;100.00
54389;BME280;40975;50.390;8.640;2022-09-09T08:21:35;98645.66;;;17.75;100.00
54389;BME280;40975;50.390;8.640;2022-09-09T08:24:02;98650.22;;;17.94;100.00
54389;BME280;40975;50.390;8.640;2022-09-09T08:26:30;98646.94;;;18.26;100.00
54389;BME280;40975;50.390;8.640;2022-09-09T08:28:58;98656.00;;;18.52;98.92
54389;BME280;40975;50.390;8.640;2022-09-09T08:31:28;98647.53;;;18.55;98.05
54389;BME280;40975;50.390;8.640;2022-09-09T08:33:55;98648.47;;;19.01;96.51
54389;BME280;40975;50.390;8.640;2022-09-09T08:36:25;98645.41;;;18.77;96.41
54389;BME280;40975;50.390;8.640;2022-09-09T08:38:54;98652.09;;;19.58;92.20
54389;BME280;40975;50.390;8.640;2022-09-09T08:47:37;98659.44;;;18.86;94.27
54389;BME280;40975;50.390;8.640;2022-09-09T08:50:29;98654.72;;;18.68;95.53
54389;BME280;40975;50.390;8.640;2022-09-09T08:53:15;98653.53;;;18.37;96.90
54389;BME280;40975;50.390;8.640;2022-09-09T08:58:21;98648.31;;;18.75;96.47
54389;BME280;40975;50.390;8.640;2022-09-09T09:09:07;98634.44;;;23.17;75.49
54389;BME280;40975;50.390;8.640;2022-09-09T09:11:36;98641.13;;;25.41;65.23
54389;BME280;40975;50.390;8.640;2022-09-09T09:14:08;98643.97;;;26.16;62.96
54389;BME280;40975;50.390;8.640;2022-09-09T09:16:56;98640.81;;;25.15;64.94
54389;BME280;40975;50.390;8.640;2022-09-09T09:19:23;98639.97;;;25.97;62.52
54389;BME280;40975;50.390;8.640;2022-09-09T09:22:15;98650.06;;;25.41;62.67
54389;BME280;40975;50.390;8.640;2022-09-09T09:24:45;98661.44;;;23.40;66.89
54389;BME280;40975;50.390;8.640;2022-09-09T09:27:21;98653.44;;;21.25;76.91
54389;BME280;40975;50.390;8.640;2022-09-09T09:29:54;98659.34;;;20.15;83.30
54389;BME280;40975;50.390;8.640;2022-09-09T09:32:23;98654.09;;;19.31;88.14
54389;BME280;40975;50.390;8.640;2022-09-09T09:34:53;98650.13;;;18.82;92.17
54389;BME280;40975;50.390;8.640;2022-09-09T09:37:31;98648.78;;;18.39;93.16
54389;BME280;40975;50.390;8.640;2022-09-09T09:40:09;98650.94;;;18.95;90.32
54389;BME280;40975;50.390;8.640;2022-09-09T09:42:35;98644.97;;;19.39;89.19
54389;BME280;40975;50.390;8.640;2022-09-09T09:45:22;98653.56;;;20.37;83.92
54389;BME280;40975;50.390;8.640;2022-09-09T09:48:05;98647.97;;;21.62;76.89
54389;BME280;40975;50.390;8.640;2022-09-09T09:50:33;98639.81;;;23.00;70.87
54389;BME280;40975;50.390;8.640;2022-09-09T09:53:01;98637.75;;;22.54;73.09
54389;BME280;40975;50.390;8.640;2022-09-09T09:55:30;98641.34;;;24.50;66.10
54389;BME280;40975;50.390;8.640;2022-09-09T09:58:06;98643.28;;;23.53;69.86
54389;BME280;40975;50.390;8.640;2022-09-09T10:00:48;98635.81;;;25.56;63.39
54389;BME280;40975;50.390;8.640;2022-09-09T10:03:32;98640.88;;;24.19;65.66
54389;BME280;40975;50.390;8.640;2022-09-09T10:06:04;98634.09;;;23.88;69.03
54389;BME280;40975;50.390;8.640;2022-09-09T10:08:34;98645.38;;;24.31;65.15
54389;BME280;40975;50.390;8.640;2022-09-09T10:11:35;98637.31;;;26.02;59.40
54389;BME280;40975;50.390;8.640;2022-09-09T10:14:19;98626.41;;;26.34;59.34
54389;BME280;40975;50.390;8.640;2022-09-09T10:19:36;98623.28;;;27.16;55.14
54389;BME280;40975;50.390;8.640;2022-09-09T10:25:04;98615.88;;;27.02;49.60
54389;BME280;40975;50.390;8.640;2022-09-09T10:30:23;98605.63;;;27.29;48.56
54389;BME280;40975;50.390;8.640;2022-09-09T10:38:15;98613.34;;;26.31;48.29
54389;BME280;40975;50.390;8.640;2022-09-09T10:48:54;98610.59;;;26.26;51.50
54389;BME280;40975;50.390;8.640;2022-09-09T10:51:36;98602.69;;;25.32;50.21
54389;BME280;40975;50.390;8.640;2022-09-09T10:54:19;98602.88;;;26.56;47.03
54389;BME280;40975;50.390;8.640;2022-09-09T10:56:54;98600.41;;;26.54;47.14
54389;BME280;40975;50.390;8.640;2022-09-09T10:59:25;98601.66;;;24.66;50.69
54389;BME280;40975;50.390;8.640;2022-09-09T11:04:23;98590.03;;;23.75;52.43
54389;BME280;40975;50.390;8.640;2022-09-09T11:06:54;98591.91;;;23.58;54.17
54389;BME280;40975;50.390;8.640;2022-09-09T11:09:28;98585.47;;;23.30;55.09
54389;BME280;40975;50.390;8.640;2022-09-09T11:11:57;98588.38;;;22.71;64.39
54389;BME280;40975;50.390;8.640;2022-09-09T11:14:43;98595.19;;;22.38;60.35
54389;BME280;40975;50.390;8.640;2022-09-09T11:17:18;98599.56;;;22.50;64.48
54389;BME280;40975;50.390;8.640;2022-09-09T11:19:46;98605.47;;;23.29;59.83
54389;BME280;40975;50.390;8.640;2022-09-09T11:22:27;98596.50;;;22.59;56.49
54389;BME280;40975;50.390;8.640;2022-09-09T11:25:05;98590.16;;;22.41;58.19
54389;BME280;40975;50.390;8.640;2022-09-09T11:44:38;98582.88;;;21.82;75.02
54389;BME280;40975;50.390;8.640;2022-09-09T11:49:48;98578.69;;;23.79;62.57
54389;BME280;40975;50.390;8.640;2022-09-09T11:52:41;98583.06;;;23.05;58.66
54389;BME280;40975;50.390;8.640;2022-09-09T11:55:25;98587.22;;;22.19;57.21
54389;BME280;40975;50.390;8.640;2022-09-09T11:57:58;98588.03;;;21.84;57.87
54389;BME280;40975;50.390;8.640;2022-09-09T12:00:45;98587.94;;;21.48;59.48
54389;BME280;40975;50.390;8.640;2022-09-09T12:06:24;98591.31;;;21.43;59.88
54389;BME280;40975;50.390;8.640;2022-09-09T12:08:56;98597.47;;;21.20;62.28
54389;BME280;40975;50.390;8.640;2022-09-09T12:11:27;98596.69;;;20.83;61.52
54389;BME280;40975;50.390;8.640;2022-09-09T12:13:55;98600.59;;;20.68;63.27
54389;BME280;40975;50.390;8.640;2022-09-09T12:16:35;98591.22;;;20.52;63.30
54389;BME280;40975;50.390;8.640;2022-09-09T12:19:21;98593.25;;;20.57;63.88
54389;BME280;40975;50.390;8.640;2022-09-09T12:22:01;98599.44;;;20.57;61.74
54389;BME280;40975;50.390;8.640;2022-09-09T12:24:49;98608.31;;;20.64;63.32
54389;BME280;40975;50.390;8.640;2022-09-09T12:27:30;98604.41;;;20.60;60.24
54389;BME280;40975;50.390;8.640;2022-09-09T12:30:01;98612.94;;;20.57;59.77
54389;BME280;40975;50.390;8.640;2022-09-09T12:32:27;98609.13;;;20.65;60.53
54389;BME280;40975;50.390;8.640;2022-09-09T12:35:13;98601.69;;;20.60;63.31
54389;BME280;40975;50.390;8.640;2022-09-09T12:37:50;98594.22;;;20.62;63.64
54389;BME280;40975;50.390;8.640;2022-09-09T12:40:21;98582.88;;;21.52;61.94
54389;BME280;40975;50.390;8.640;2022-09-09T12:42:48;98577.34;;;22.13;59.00
54389;BME280;40975;50.390;8.640;2022-09-09T12:45:22;98565.59;;;22.31;56.93
54389;BME280;40975;50.390;8.640;2022-09-09T12:47:52;98558.03;;;22.69;56.71
54389;BME280;40975;50.390;8.640;2022-09-09T12:50:23;98577.00;;;22.45;57.43
54389;BME280;40975;50.390;8.640;2022-09-09T12:52:53;98584.69;;;21.58;57.91
54389;BME280;40975;50.390;8.640;2022-09-09T12:55:21;98581.84;;;21.10;59.54
54389;BME280;40975;50.390;8.640;2022-09-09T12:57:50;98586.72;;;21.02;60.09
54389;BME280;40975;50.390;8.640;2022-09-09T13:00:23;98581.16;;;21.15;60.01
54389;BME280;40975;50.390;8.640;2022-09-09T13:02:51;98593.75;;;21.64;60.01
54389;BME280;40975;50.390;8.640;2022-09-09T13:05:21;98582.72;;;21.77;58.91
54389;BME280;40975;50.390;8.640;2022-09-09T13:07:47;98576.81;;;21.14;60.95
54389;BME280;40975;50.390;8.640;2022-09-09T13:10:14;98569.31;;;21.16;61.90
54389;BME280;40975;50.390;8.640;2022-09-09T13:12:41;98574.03;;;21.02;62.64
54389;BME280;40975;50.390;8.640;2022-09-09T13:15:28;98575.00;;;20.77;64.00
54389;BME280;40975;50.390;8.640;2022-09-09T13:17:56;98582.69;;;20.55;64.82
54389;BME280;40975;50.390;8.640;2022-09-09T13:20:23;98578.44;;;20.85;61.66
54389;BME280;40975;50.390;8.640;2022-09-09T13:22:51;98575.28;;;21.18;61.04
54389;BME280;40975;50.390;8.640;2022-09-09T13:25:19;98568.03;;;21.19;61.24
54389;BME280;40975;50.390;8.640;2022-09-09T13:28:21;98569.13;;;20.99;63.17
54389;BME280;40975;50.390;8.640;2022-09-09T13:31:04;98566.22;;;20.82;62.32
54389;BME280;40975;50.390;8.640;2022-09-09T13:33:38;98558.44;;;20.74;62.84
54389;BME280;40975;50.390;8.640;2022-09-09T13:36:08;98560.34;;;20.66;64.89
54389;BME280;40975;50.390;8.640;2022-09-09T13:38:53;98552.72;;;21.12;63.04
54389;BME280;40975;50.390;8.640;2022-09-09T13:41:21;98555.16;;;21.02;62.56
54389;BME280;40975;50.390;8.640;2022-09-09T13:43:49;98554.28;;;21.20;61.74
54389;BME280;40975;50.390;8.640;2022-09-09T13:51:44;98541.66;;;21.21;62.51
54389;BME280;40975;50.390;8.640;2022-09-09T13:54:14;98545.28;;;20.96;64.80
54389;BME280;40975;50.390;8.640;2022-09-09T13:56:41;98533.72;;;20.58;66.36
54389;BME280;40975;50.390;8.640;2022-09-09T13:59:11;98533.72;;;20.21;67.99
54389;BME280;40975;50.390;8.640;2022-09-09T14:01:37;98538.22;;;20.64;67.13
54389;BME280;40975;50.390;8.640;2022-09-09T14:04:03;98535.53;;;20.64;67.47
54389;BME280;40975;50.390;8.640;2022-09-09T14:06:30;98535.16;;;20.24;70.04
54389;BME280;40975;50.390;8.640;2022-09-09T14:08:57;98527.72;;;20.19;70.44
54389;BME280;40975;50.390;8.640;2022-09-09T14:11:22;98532.38;;;20.12;70.87
54389;BME280;40975;50.390;8.640;2022-09-09T14:13:48;98544.53;;;19.96;71.55
54389;BME280;40975;50.390;8.640;2022-09-09T14:16:16;98540.44;;;19.93;72.15
54389;BME280;40975;50.390;8.640;2022-09-09T14:18:42;98548.50;;;19.93;71.79
54389;BME280;40975;50.390;8.640;2022-09-09T14:21:09;98546.25;;;19.90;73.14
54389;BME280;40975;50.390;8.640;2022-09-09T14:23:34;98545.91;;;19.80;74.58
54389;BME280;40975;50.390;8.640;2022-09-09T14:25:59;98540.56;;;19.73;69.44
54389;BME280;40975;50.390;8.640;2022-09-09T14:28:25;98547.97;;;19.78;68.36
54389;BME280;40975;50.390;8.640;2022-09-09T14:30:50;98544.31;;;19.72;67.29
54389;BME280;40975;50.390;8.640;2022-09-09T14:33:16;98551.47;;;19.60;68.30
54389;BME280;40975;50.390;8.640;2022-09-09T14:35:42;98557.31;;;19.50;68.05
54389;BME280;40975;50.390;8.640;2022-09-09T14:38:09;98561.84;;;19.56;68.18
54389;BME280;40975;50.390;8.640;2022-09-09T14:40:36;98552.28;;;19.60;68.32
54389;BME280;40975;50.390;8.640;2022-09-09T14:43:03;98551.66;;;19.58;68.39
54389;BME280;40975;50.390;8.640;2022-09-09T14:45:29;98546.25;;;19.65;68.24
54389;BME280;40975;50.390;8.640;2022-09-09T14:47:54;98564.34;;;19.51;67.91
54389;BME280;40975;50.390;8.640;2022-09-09T14:50:21;98554.53;;;19.38;68.22
54389;BME280;40975;50.390;8.640;2022-09-09T14:52:46;98558.75;;;19.52;68.51
54389;BME280;40975;50.390;8.640;2022-09-09T14:55:12;98563.56;;;19.50;69.04